Weather at Montreal / Pierre Elliott Trudeau International Airport

Public forecast

Using degrees Celsius for public forecast. Weather courtesy of forecast.io.

Current aviation weather report (METAR) for Montreal / Pierre Elliott Trudeau International Airport

Retrieved 2021/07/28 14:00 UTC (21 minutes ago):

CYUL 281400Z 04005KT 030V090 30SM FEW035 20/09 A3008 RMK CU1 CU TR SLP188 DENSITY ALT 600FT

Aviation forecast (TAF) for Montreal / Pierre Elliott Trudeau International Airport

Retrieved 2021/07/28 12:48 UTC (2 hours ago):

TAF CYUL 281142Z 2812/2912 03005KT P6SM FEW020 BECMG 2817/2819 23008KT FM281900 23008KT P6SM SCT060 TEMPO 2819/2824 BKN060 FM290000 29008KT P6SM SKC BECMG 2902/2904 20005KT SCT240 RMK NXT FCST BY 281500Z